createdAt,value
2023-02-12T00:01:29.350Z,15.4
2023-02-12T00:06:29.179Z,15
2023-02-12T00:11:29.117Z,14.7
2023-02-12T00:16:29.266Z,14.4
2023-02-12T00:21:29.089Z,14.1
2023-02-12T00:26:29.190Z,13.8
2023-02-12T00:31:29.139Z,13.6
2023-02-12T00:36:29.188Z,13.3
2023-02-12T00:41:29.186Z,13.1
2023-02-12T00:46:29.151Z,12.9
2023-02-12T00:51:29.114Z,12.7
2023-02-12T00:56:29.120Z,12.4
2023-02-12T01:01:29.138Z,12.3
2023-02-12T01:06:29.085Z,12.1
2023-02-12T01:11:29.119Z,11.9
2023-02-12T01:16:29.189Z,11.8
2023-02-12T01:21:29.194Z,11.6
2023-02-12T01:26:29.098Z,11.4
2023-02-12T01:31:29.255Z,11.3
2023-02-12T01:36:29.118Z,11.1
2023-02-12T01:41:29.157Z,11
2023-02-12T01:46:29.135Z,10.9
2023-02-12T01:51:29.086Z,10.8
2023-02-12T01:56:29.147Z,10.6
2023-02-12T02:01:29.151Z,10.5
2023-02-12T02:06:29.093Z,10.4
2023-02-12T02:11:29.148Z,10.3
2023-02-12T02:16:29.188Z,10.2
2023-02-12T02:21:29.145Z,10.1
2023-02-12T02:26:29.083Z,10
2023-02-12T02:31:29.151Z,9.9
2023-02-12T02:36:29.102Z,9.8
2023-02-12T02:41:29.073Z,9.7
2023-02-12T02:46:29.156Z,9.6
2023-02-12T02:51:29.059Z,9.6
2023-02-12T02:56:29.111Z,9.5
2023-02-12T03:01:29.071Z,9.4
2023-02-12T03:06:29.081Z,9.3
2023-02-12T03:11:29.266Z,9.3
2023-02-12T03:16:29.195Z,9.2
2023-02-12T03:21:29.139Z,9.2
2023-02-12T03:26:29.086Z,9.1
2023-02-12T03:31:29.268Z,9.1
2023-02-12T03:36:29.109Z,9
2023-02-12T03:41:29.153Z,8.9
2023-02-12T03:46:29.123Z,8.9
2023-02-12T03:51:29.116Z,8.9
2023-02-12T03:56:29.141Z,8.8
2023-02-12T04:01:29.191Z,8.8
2023-02-12T04:06:29.147Z,8.8
2023-02-12T04:11:29.045Z,8.7
2023-02-12T04:16:29.113Z,8.7
2023-02-12T04:21:29.040Z,8.6
2023-02-12T04:26:29.046Z,8.6
2023-02-12T04:31:29.180Z,8.6
2023-02-12T04:36:29.141Z,8.6
2023-02-12T04:41:29.038Z,8.5
2023-02-12T04:46:29.085Z,8.5
2023-02-12T04:51:29.049Z,8.4
2023-02-12T04:56:29.065Z,8.4
2023-02-12T05:01:31.244Z,8.4
2023-02-12T05:06:29.268Z,8.4
2023-02-12T05:11:29.050Z,8.4
2023-02-12T05:16:29.081Z,8.3
2023-02-12T05:21:29.034Z,8.3
2023-02-12T05:26:29.041Z,8.3
2023-02-12T05:31:29.130Z,8.3
2023-02-12T05:36:29.066Z,8.3
2023-02-12T05:41:29.021Z,8.3
2023-02-12T05:46:29.061Z,8.2
2023-02-12T05:51:29.049Z,8.2
2023-02-12T05:56:29.051Z,8.1
2023-02-12T06:01:29.024Z,8.1
2023-02-12T06:06:29.290Z,8.1
2023-02-12T06:11:29.011Z,8.1
2023-02-12T06:16:29.317Z,8.1
2023-02-12T06:21:29.010Z,8.1
2023-02-12T06:26:29.009Z,8.1
2023-02-12T06:31:29.260Z,8
2023-02-12T06:36:29.328Z,8
2023-02-12T06:41:29.016Z,8
2023-02-12T06:46:29.281Z,8
2023-02-12T06:51:29.058Z,7.9
2023-02-12T06:56:29.042Z,7.9
2023-02-12T07:01:29.001Z,7.9
2023-02-12T07:06:29.024Z,7.9
2023-02-12T07:11:29.030Z,7.9
2023-02-12T07:16:29.220Z,7.9
2023-02-12T07:21:29.334Z,7.9
2023-02-12T07:26:29.093Z,7.9
2023-02-12T07:31:29.419Z,7.9
2023-02-12T07:36:29.320Z,7.9
2023-02-12T07:41:29.107Z,7.8
2023-02-12T07:46:29.325Z,7.8
2023-02-12T07:51:29.321Z,7.8
2023-02-12T07:56:29.130Z,7.8
2023-02-12T08:01:29.102Z,7.8
2023-02-12T08:06:29.104Z,7.8
2023-02-12T08:11:29.084Z,7.8
2023-02-12T08:16:29.824Z,7.8
2023-02-12T08:21:29.356Z,7.8
2023-02-12T08:26:29.269Z,7.8
2023-02-12T08:31:29.158Z,7.8
2023-02-12T08:36:29.165Z,7.8
2023-02-12T08:41:29.129Z,7.8
2023-02-12T08:46:29.209Z,7.8
2023-02-12T08:51:29.123Z,7.9
2023-02-12T08:56:29.152Z,7.9
2023-02-12T09:01:29.153Z,7.9
2023-02-12T09:06:29.130Z,7.9
2023-02-12T09:11:29.187Z,8.4
2023-02-12T09:16:29.210Z,11.8
2023-02-12T09:21:29.112Z,13.8
2023-02-12T09:26:29.119Z,18.3
2023-02-12T09:31:29.366Z,18.8
2023-02-12T09:36:29.134Z,19.9
2023-02-12T09:44:08.688Z,29.3
2023-02-12T09:49:08.764Z,32
2023-02-12T09:54:08.665Z,34.3
2023-02-12T09:59:08.683Z,36.3
2023-02-12T10:04:08.632Z,38
2023-02-12T10:09:08.618Z,39.5
2023-02-12T10:14:08.625Z,40.8
2023-02-12T10:19:08.646Z,41.9
2023-02-12T10:24:08.607Z,42.9
2023-02-12T10:29:08.609Z,43.8
2023-02-12T10:34:08.625Z,44.6
2023-02-12T10:39:08.641Z,45.3
2023-02-12T10:44:08.630Z,45.8
2023-02-12T10:49:08.627Z,46.3
2023-02-12T10:54:08.606Z,46.7
2023-02-12T10:59:08.647Z,44.8
2023-02-12T11:04:08.606Z,44.3
2023-02-12T11:09:08.613Z,43.8
2023-02-12T11:14:08.598Z,42
2023-02-12T11:19:08.642Z,40.6
2023-02-12T11:24:08.571Z,39.4
2023-02-12T11:29:08.869Z,38.3
2023-02-12T11:34:08.658Z,37.1
2023-02-12T11:39:08.681Z,35.9
2023-02-12T11:44:08.621Z,34.8
2023-02-12T11:49:08.633Z,33.8
2023-02-12T11:54:08.655Z,32.6
2023-02-12T11:59:08.633Z,31.5
2023-02-12T12:04:08.634Z,30.4
2023-02-12T12:09:08.658Z,29.4
2023-02-12T12:14:08.654Z,28.4
2023-02-12T12:19:08.635Z,27.5
2023-02-12T12:24:08.624Z,26.7
2023-02-12T12:29:08.622Z,25.9
2023-02-12T12:34:08.648Z,25.3
2023-02-12T12:39:08.658Z,24.6
2023-02-12T12:44:08.596Z,24.1
2023-02-12T12:49:08.634Z,23.6
2023-02-12T12:54:08.668Z,23.1
2023-02-12T12:59:08.610Z,22.7
2023-02-12T13:04:08.602Z,22.3
2023-02-12T13:09:08.738Z,22
2023-02-12T13:14:08.639Z,21.8
2023-02-12T13:19:08.620Z,21.6
2023-02-12T13:24:08.609Z,21.3
2023-02-12T13:29:08.614Z,21.3
2023-02-12T13:34:08.644Z,24.8
2023-02-12T13:39:08.623Z,23.6
2023-02-12T13:44:08.601Z,25.8
2023-02-12T13:49:08.610Z,24.9
2023-02-12T13:54:08.628Z,24.3
2023-02-12T13:59:08.592Z,23.7
2023-02-12T14:04:08.682Z,23.3
2023-02-12T14:09:08.609Z,22.9
2023-02-12T14:14:08.633Z,22.6
2023-02-12T14:19:08.604Z,22.3
2023-02-12T14:24:08.590Z,21.9
2023-02-12T14:29:08.590Z,21.6
2023-02-12T14:34:08.624Z,21.3
2023-02-12T14:39:08.616Z,21.1
2023-02-12T14:44:08.592Z,20.8
2023-02-12T14:49:08.609Z,20.6
2023-02-12T14:54:08.618Z,20.4
2023-02-12T14:59:08.596Z,20.2
2023-02-12T15:04:08.587Z,20.1
2023-02-12T15:09:08.612Z,19.9
2023-02-12T15:14:08.624Z,19.8
2023-02-12T15:19:08.650Z,19.8
2023-02-12T15:24:08.626Z,19.7
2023-02-12T15:29:08.597Z,19.6
2023-02-12T15:34:08.604Z,19.6
2023-02-12T15:39:08.625Z,19.4
2023-02-12T15:44:08.619Z,19.3
2023-02-12T15:49:08.621Z,19.3
2023-02-12T15:54:08.637Z,19.1
2023-02-12T15:59:08.605Z,19
2023-02-12T16:04:08.667Z,18.9
2023-02-12T16:09:08.615Z,18.8
2023-02-12T16:14:08.650Z,18.8
2023-02-12T16:19:08.613Z,18.7
2023-02-12T16:24:08.591Z,18.7
2023-02-12T16:29:08.601Z,18.6
2023-02-12T16:34:08.626Z,18.6
2023-02-12T16:39:08.616Z,18.5
2023-02-12T16:44:08.598Z,18.5
2023-02-12T16:49:08.619Z,18.4
2023-02-12T16:54:08.672Z,18.4
2023-02-12T16:59:08.618Z,18.3
2023-02-12T17:04:08.597Z,18.2
2023-02-12T17:09:08.594Z,18.2
2023-02-12T17:14:08.611Z,18.1
2023-02-12T17:19:08.615Z,18.1
2023-02-12T17:24:08.609Z,18.1
2023-02-12T17:29:08.619Z,18.1
2023-02-12T17:34:08.664Z,18
2023-02-12T17:39:08.670Z,18
2023-02-12T17:44:08.628Z,17.9
2023-02-12T17:49:08.630Z,17.8
2023-02-12T17:54:08.675Z,17.8
2023-02-12T17:59:08.654Z,17.8
2023-02-12T18:04:08.677Z,17.7
2023-02-12T18:09:08.773Z,17.7
2023-02-12T18:14:08.671Z,17.6
2023-02-12T18:19:08.662Z,17.6
2023-02-12T18:24:08.678Z,17.6
2023-02-12T18:29:08.725Z,17.6
2023-02-12T18:34:08.698Z,17.6
2023-02-12T18:39:08.704Z,17.6
2023-02-12T18:44:08.675Z,17.6
2023-02-12T18:49:08.672Z,17.6
2023-02-12T18:54:08.775Z,17.6
2023-02-12T18:59:08.682Z,17.6
2023-02-12T19:04:08.701Z,17.7
2023-02-12T19:09:08.671Z,17.7
2023-02-12T19:14:08.749Z,17.7
2023-02-12T19:19:08.653Z,17.7
2023-02-12T19:24:08.648Z,17.7
2023-02-12T19:29:08.700Z,17.8
2023-02-12T19:34:08.679Z,17.8
2023-02-12T19:39:08.889Z,17.8
2023-02-12T19:44:08.745Z,17.8
2023-02-12T19:49:08.660Z,17.8
2023-02-12T19:54:08.712Z,17.8
2023-02-12T19:59:08.667Z,17.7
2023-02-12T20:04:08.658Z,17.7
2023-02-12T20:09:08.716Z,17.6
2023-02-12T20:14:08.680Z,18.6
2023-02-12T20:19:08.700Z,19.6
2023-02-12T20:24:08.657Z,19.6
2023-02-12T20:29:08.654Z,21.4
2023-02-12T20:34:08.696Z,20.5
2023-02-12T20:39:08.791Z,19.9
2023-02-12T20:44:08.678Z,19.5
2023-02-12T20:49:08.701Z,19.2
2023-02-12T20:54:08.718Z,21.6
2023-02-12T20:59:08.771Z,20.4
2023-02-12T21:04:08.724Z,23.2
2023-02-12T21:09:08.866Z,21.9
2023-02-12T21:14:21.105Z,21.1
2023-02-12T21:19:08.818Z,20.5
2023-02-12T21:24:08.688Z,20
2023-02-12T21:29:08.683Z,22.9
2023-02-12T21:34:08.730Z,22.7
2023-02-12T21:39:08.780Z,23.9
2023-02-12T21:44:08.702Z,23.9
2023-02-12T21:49:08.705Z,24.9
2023-02-12T21:54:08.767Z,24.9
2023-02-12T21:59:08.684Z,26.3
2023-02-12T22:04:08.681Z,26.6
2023-02-12T22:09:08.998Z,28.2
2023-02-12T22:14:08.736Z,29.3
2023-02-12T22:19:08.657Z,30.5
2023-02-12T22:24:08.687Z,29.8
2023-02-12T22:29:08.664Z,28.5
2023-02-12T22:34:08.693Z,27.3
2023-02-12T22:39:08.672Z,26.1
2023-02-12T22:44:08.661Z,25.1
2023-02-12T22:49:08.682Z,24.1
2023-02-12T22:54:08.689Z,22.9
2023-02-12T22:59:08.665Z,22.1
2023-02-12T23:04:08.686Z,21.4
2023-02-12T23:09:08.669Z,20.7
2023-02-12T23:14:08.675Z,20
2023-02-12T23:19:08.670Z,19.4
2023-02-12T23:24:08.652Z,18.8
2023-02-12T23:29:08.738Z,18.3
2023-02-12T23:34:08.720Z,17.8
2023-02-12T23:39:08.695Z,17.4
2023-02-12T23:44:08.665Z,16.9
2023-02-12T23:49:08.707Z,16.6
2023-02-12T23:54:08.702Z,16.2
2023-02-12T23:59:08.672Z,15.9
